sensor_id;sensor_type;location;lat;lon;timestamp;temperature;humidity
42333;DHT22;27984;51.476;5.702;2023-02-18T00:01:10;11.60;99.90
42333;DHT22;27984;51.476;5.702;2023-02-18T00:03:36;11.60;99.90
42333;DHT22;27984;51.476;5.702;2023-02-18T00:06:09;11.60;99.90
42333;DHT22;27984;51.476;5.702;2023-02-18T00:08:34;11.60;99.90
42333;DHT22;27984;51.476;5.702;2023-02-18T00:11:00;11.60;99.90
42333;DHT22;27984;51.476;5.702;2023-02-18T00:13:25;11.70;99.90
42333;DHT22;27984;51.476;5.702;2023-02-18T00:15:51;11.60;99.90
42333;DHT22;27984;51.476;5.702;2023-02-18T00:18:16;11.60;99.90
42333;DHT22;27984;51.476;5.702;2023-02-18T00:20:42;11.60;99.90
42333;DHT22;27984;51.476;5.702;2023-02-18T00:23:07;11.60;99.90
42333;DHT22;27984;51.476;5.702;2023-02-18T00:25:33;11.60;99.90
42333;DHT22;27984;51.476;5.702;2023-02-18T00:27:58;11.60;99.90
42333;DHT22;27984;51.476;5.702;2023-02-18T00:30:24;11.60;99.90
42333;DHT22;27984;51.476;5.702;2023-02-18T00:32:49;11.60;99.90
42333;DHT22;27984;51.476;5.702;2023-02-18T00:35:15;11.60;99.90
42333;DHT22;27984;51.476;5.702;2023-02-18T00:37:40;11.60;99.90
42333;DHT22;27984;51.476;5.702;2023-02-18T00:40:06;11.60;99.90
42333;DHT22;27984;51.476;5.702;2023-02-18T00:42:31;11.60;99.90
42333;DHT22;27984;51.476;5.702;2023-02-18T00:44:57;11.60;99.90
42333;DHT22;27984;51.476;5.702;2023-02-18T00:47:22;11.60;99.90
42333;DHT22;27984;51.476;5.702;2023-02-18T00:49:48;11.60;99.90
42333;DHT22;27984;51.476;5.702;2023-02-18T00:52:13;11.50;99.90
42333;DHT22;27984;51.476;5.702;2023-02-18T00:54:38;11.50;99.90
42333;DHT22;27984;51.476;5.702;2023-02-18T00:57:04;11.50;99.90
42333;DHT22;27984;51.476;5.702;2023-02-18T00:59:29;11.50;99.90
42333;DHT22;27984;51.476;5.702;2023-02-18T01:01:55;11.50;99.90
42333;DHT22;27984;51.476;5.702;2023-02-18T01:04:20;11.50;99.90
42333;DHT22;27984;51.476;5.702;2023-02-18T01:06:46;11.50;99.90
42333;DHT22;27984;51.476;5.702;2023-02-18T01:09:11;11.50;99.90
42333;DHT22;27984;51.476;5.702;2023-02-18T01:11:37;11.50;99.90
42333;DHT22;27984;51.476;5.702;2023-02-18T01:14:02;11.40;99.90
42333;DHT22;27984;51.476;5.702;2023-02-18T01:16:28;11.40;99.90
42333;DHT22;27984;51.476;5.702;2023-02-18T01:18:54;11.40;99.90
42333;DHT22;27984;51.476;5.702;2023-02-18T01:21:19;11.40;99.90
42333;DHT22;27984;51.476;5.702;2023-02-18T01:23:45;11.40;99.90
42333;DHT22;27984;51.476;5.702;2023-02-18T01:26:10;11.40;99.90
42333;DHT22;27984;51.476;5.702;2023-02-18T01:28:36;11.40;99.90
42333;DHT22;27984;51.476;5.702;2023-02-18T01:31:06;11.40;99.90
42333;DHT22;27984;51.476;5.702;2023-02-18T01:33:32;11.30;99.90
42333;DHT22;27984;51.476;5.702;2023-02-18T01:35:58;11.30;99.90
42333;DHT22;27984;51.476;5.702;2023-02-18T01:38:23;11.30;99.90
42333;DHT22;27984;51.476;5.702;2023-02-18T01:40:49;11.20;99.90
42333;DHT22;27984;51.476;5.702;2023-02-18T01:43:16;11.20;99.90
42333;DHT22;27984;51.476;5.702;2023-02-18T01:45:46;11.20;99.90
42333;DHT22;27984;51.476;5.702;2023-02-18T01:51:09;11.10;99.90
42333;DHT22;27984;51.476;5.702;2023-02-18T01:54:20;11.10;99.90
42333;DHT22;27984;51.476;5.702;2023-02-18T01:56:29;11.00;99.90
42333;DHT22;27984;51.476;5.702;2023-02-18T01:58:56;11.00;99.90
42333;DHT22;27984;51.476;5.702;2023-02-18T02:01:24;10.90;99.90
42333;DHT22;27984;51.476;5.702;2023-02-18T02:03:50;10.90;99.90
42333;DHT22;27984;51.476;5.702;2023-02-18T02:06:17;10.80;99.90
42333;DHT22;27984;51.476;5.702;2023-02-18T02:08:43;10.80;99.90
42333;DHT22;27984;51.476;5.702;2023-02-18T02:16:44;10.80;99.90
42333;DHT22;27984;51.476;5.702;2023-02-18T02:22:14;10.80;99.90
42333;DHT22;27984;51.476;5.702;2023-02-18T02:27:38;10.80;99.90
42333;DHT22;27984;51.476;5.702;2023-02-18T02:35:22;10.80;99.90
42333;DHT22;27984;51.476;5.702;2023-02-18T02:38:05;10.70;99.90
42333;DHT22;27984;51.476;5.702;2023-02-18T02:43:30;10.70;99.90
42333;DHT22;27984;51.476;5.702;2023-02-18T02:46:02;10.70;99.90
42333;DHT22;27984;51.476;5.702;2023-02-18T02:48:40;10.70;99.90
42333;DHT22;27984;51.476;5.702;2023-02-18T02:51:42;10.70;99.90
42333;DHT22;27984;51.476;5.702;2023-02-18T02:54:19;10.70;99.90
42333;DHT22;27984;51.476;5.702;2023-02-18T02:56:44;10.70;99.90
42333;DHT22;27984;51.476;5.702;2023-02-18T02:59:12;10.70;99.90
42333;DHT22;27984;51.476;5.702;2023-02-18T03:04:29;10.70;99.90
42333;DHT22;27984;51.476;5.702;2023-02-18T03:07:06;10.70;99.90
42333;DHT22;27984;51.476;5.702;2023-02-18T03:09:40;10.80;99.90
42333;DHT22;27984;51.476;5.702;2023-02-18T03:17:24;10.70;99.90
42333;DHT22;27984;51.476;5.702;2023-02-18T03:19:55;10.80;99.90
42333;DHT22;27984;51.476;5.702;2023-02-18T03:22:24;10.80;99.90
42333;DHT22;27984;51.476;5.702;2023-02-18T03:24:52;10.70;99.90
42333;DHT22;27984;51.476;5.702;2023-02-18T03:27:29;10.70;99.90
42333;DHT22;27984;51.476;5.702;2023-02-18T03:29:58;10.70;99.90
42333;DHT22;27984;51.476;5.702;2023-02-18T03:32:25;10.70;99.90
42333;DHT22;27984;51.476;5.702;2023-02-18T03:34:54;10.60;99.90
42333;DHT22;27984;51.476;5.702;2023-02-18T03:37:21;10.70;99.90
42333;DHT22;27984;51.476;5.702;2023-02-18T03:39:48;10.70;99.90
42333;DHT22;27984;51.476;5.702;2023-02-18T03:42:16;10.70;99.90
42333;DHT22;27984;51.476;5.702;2023-02-18T03:44:43;10.60;99.90
42333;DHT22;27984;51.476;5.702;2023-02-18T03:47:08;10.60;99.90
42333;DHT22;27984;51.476;5.702;2023-02-18T03:49:33;10.60;99.90
42333;DHT22;27984;51.476;5.702;2023-02-18T03:51:59;10.60;99.90
42333;DHT22;27984;51.476;5.702;2023-02-18T03:54:24;10.60;99.90
42333;DHT22;27984;51.476;5.702;2023-02-18T03:56:50;10.60;99.90
42333;DHT22;27984;51.476;5.702;2023-02-18T03:59:15;10.60;99.90
42333;DHT22;27984;51.476;5.702;2023-02-18T04:01:41;10.60;99.90
42333;DHT22;27984;51.476;5.702;2023-02-18T04:04:06;10.60;99.90
42333;DHT22;27984;51.476;5.702;2023-02-18T04:06:32;10.60;99.90
42333;DHT22;27984;51.476;5.702;2023-02-18T04:08:57;10.60;99.90
42333;DHT22;27984;51.476;5.702;2023-02-18T04:11:23;10.60;99.90
42333;DHT22;27984;51.476;5.702;2023-02-18T04:13:48;10.60;99.90
42333;DHT22;27984;51.476;5.702;2023-02-18T04:16:14;10.50;99.90
42333;DHT22;27984;51.476;5.702;2023-02-18T04:18:39;10.60;99.90
42333;DHT22;27984;51.476;5.702;2023-02-18T04:21:05;10.50;99.90
42333;DHT22;27984;51.476;5.702;2023-02-18T04:23:30;10.50;99.90
42333;DHT22;27984;51.476;5.702;2023-02-18T04:25:56;10.50;99.90
42333;DHT22;27984;51.476;5.702;2023-02-18T04:28:21;10.50;99.90
42333;DHT22;27984;51.476;5.702;2023-02-18T04:30:47;10.50;99.90
42333;DHT22;27984;51.476;5.702;2023-02-18T04:33:12;10.50;99.90
42333;DHT22;27984;51.476;5.702;2023-02-18T04:35:38;10.50;99.90
42333;DHT22;27984;51.476;5.702;2023-02-18T04:38:05;10.50;99.90
42333;DHT22;27984;51.476;5.702;2023-02-18T04:40:31;10.50;99.90
42333;DHT22;27984;51.476;5.702;2023-02-18T04:42:57;10.50;99.90
42333;DHT22;27984;51.476;5.702;2023-02-18T04:45:23;10.50;99.90
42333;DHT22;27984;51.476;5.702;2023-02-18T04:47:48;10.50;99.90
42333;DHT22;27984;51.476;5.702;2023-02-18T04:50:13;10.50;99.90
42333;DHT22;27984;51.476;5.702;2023-02-18T04:52:39;10.50;99.90
42333;DHT22;27984;51.476;5.702;2023-02-18T04:55:04;10.50;99.90
42333;DHT22;27984;51.476;5.702;2023-02-18T04:57:30;10.50;99.90
42333;DHT22;27984;51.476;5.702;2023-02-18T04:59:55;10.50;99.90
42333;DHT22;27984;51.476;5.702;2023-02-18T05:02:21;10.50;99.90
42333;DHT22;27984;51.476;5.702;2023-02-18T05:04:46;10.50;99.90
42333;DHT22;27984;51.476;5.702;2023-02-18T05:07:12;10.50;99.90
42333;DHT22;27984;51.476;5.702;2023-02-18T05:09:37;10.50;99.90
42333;DHT22;27984;51.476;5.702;2023-02-18T05:12:03;10.50;99.90
42333;DHT22;27984;51.476;5.702;2023-02-18T05:14:28;10.50;99.90
42333;DHT22;27984;51.476;5.702;2023-02-18T05:16:54;10.50;99.90
42333;DHT22;27984;51.476;5.702;2023-02-18T05:19:19;10.50;99.90
42333;DHT22;27984;51.476;5.702;2023-02-18T05:21:45;10.50;99.90
42333;DHT22;27984;51.476;5.702;2023-02-18T05:24:10;10.50;99.90
42333;DHT22;27984;51.476;5.702;2023-02-18T05:26:36;10.50;99.90
42333;DHT22;27984;51.476;5.702;2023-02-18T05:29:01;10.50;99.90
42333;DHT22;27984;51.476;5.702;2023-02-18T05:31:27;10.50;99.90
42333;DHT22;27984;51.476;5.702;2023-02-18T05:33:52;10.60;99.90
42333;DHT22;27984;51.476;5.702;2023-02-18T05:36:18;10.50;99.90
42333;DHT22;27984;51.476;5.702;2023-02-18T05:38:43;10.50;99.90
42333;DHT22;27984;51.476;5.702;2023-02-18T05:41:09;10.50;99.90
42333;DHT22;27984;51.476;5.702;2023-02-18T05:43:34;10.50;99.90
42333;DHT22;27984;51.476;5.702;2023-02-18T05:46:20;10.50;99.90
42333;DHT22;27984;51.476;5.702;2023-02-18T05:48:45;10.50;99.90
42333;DHT22;27984;51.476;5.702;2023-02-18T05:51:10;10.50;99.90
42333;DHT22;27984;51.476;5.702;2023-02-18T05:53:36;10.50;99.90
42333;DHT22;27984;51.476;5.702;2023-02-18T05:56:01;10.50;99.90
42333;DHT22;27984;51.476;5.702;2023-02-18T05:58:27;10.50;99.90
42333;DHT22;27984;51.476;5.702;2023-02-18T06:00:53;10.50;99.90
42333;DHT22;27984;51.476;5.702;2023-02-18T06:03:18;10.50;99.90
42333;DHT22;27984;51.476;5.702;2023-02-18T06:05:43;10.50;99.90
42333;DHT22;27984;51.476;5.702;2023-02-18T06:08:09;10.40;99.90
42333;DHT22;27984;51.476;5.702;2023-02-18T06:10:34;10.40;99.90
42333;DHT22;27984;51.476;5.702;2023-02-18T06:13:00;10.50;99.90
42333;DHT22;27984;51.476;5.702;2023-02-18T06:15:26;10.40;99.90
42333;DHT22;27984;51.476;5.702;2023-02-18T06:17:52;10.30;99.90
42333;DHT22;27984;51.476;5.702;2023-02-18T06:20:17;10.40;99.90
42333;DHT22;27984;51.476;5.702;2023-02-18T06:22:43;10.40;99.90
42333;DHT22;27984;51.476;5.702;2023-02-18T06:25:08;10.30;99.90
42333;DHT22;27984;51.476;5.702;2023-02-18T06:27:34;10.30;99.90
42333;DHT22;27984;51.476;5.702;2023-02-18T06:29:59;10.30;99.90
42333;DHT22;27984;51.476;5.702;2023-02-18T06:32:24;10.30;99.90
42333;DHT22;27984;51.476;5.702;2023-02-18T06:34:50;10.30;99.90
42333;DHT22;27984;51.476;5.702;2023-02-18T06:37:15;10.30;99.90
42333;DHT22;27984;51.476;5.702;2023-02-18T06:39:41;10.30;99.90
42333;DHT22;27984;51.476;5.702;2023-02-18T06:42:06;10.30;99.90
42333;DHT22;27984;51.476;5.702;2023-02-18T06:44:32;10.30;99.90
42333;DHT22;27984;51.476;5.702;2023-02-18T06:46:57;10.30;99.90
42333;DHT22;27984;51.476;5.702;2023-02-18T06:49:22;10.30;99.90
42333;DHT22;27984;51.476;5.702;2023-02-18T06:51:48;10.30;99.90
42333;DHT22;27984;51.476;5.702;2023-02-18T06:54:13;10.30;99.90
42333;DHT22;27984;51.476;5.702;2023-02-18T06:56:39;10.30;99.90
42333;DHT22;27984;51.476;5.702;2023-02-18T06:59:04;10.30;99.90
42333;DHT22;27984;51.476;5.702;2023-02-18T07:01:30;10.30;99.90
42333;DHT22;27984;51.476;5.702;2023-02-18T07:03:55;10.30;99.90
42333;DHT22;27984;51.476;5.702;2023-02-18T07:06:21;10.30;99.90
42333;DHT22;27984;51.476;5.702;2023-02-18T07:08:46;10.30;99.90
42333;DHT22;27984;51.476;5.702;2023-02-18T07:11:11;10.30;99.90
42333;DHT22;27984;51.476;5.702;2023-02-18T07:13:37;10.30;99.90
42333;DHT22;27984;51.476;5.702;2023-02-18T07:16:02;10.30;99.90
42333;DHT22;27984;51.476;5.702;2023-02-18T07:18:28;10.30;99.90
42333;DHT22;27984;51.476;5.702;2023-02-18T07:20:53;10.20;99.90
42333;DHT22;27984;51.476;5.702;2023-02-18T07:23:19;10.20;99.90
42333;DHT22;27984;51.476;5.702;2023-02-18T07:25:44;10.20;99.90
42333;DHT22;27984;51.476;5.702;2023-02-18T07:28:10;10.20;99.90
42333;DHT22;27984;51.476;5.702;2023-02-18T07:30:35;10.10;99.90
42333;DHT22;27984;51.476;5.702;2023-02-18T07:33:01;10.10;99.90
42333;DHT22;27984;51.476;5.702;2023-02-18T07:35:26;10.10;99.90
42333;DHT22;27984;51.476;5.702;2023-02-18T07:37:52;10.00;99.90
42333;DHT22;27984;51.476;5.702;2023-02-18T07:40:18;10.00;99.90
42333;DHT22;27984;51.476;5.702;2023-02-18T07:42:44;9.90;99.90
42333;DHT22;27984;51.476;5.702;2023-02-18T07:45:09;9.90;99.90
42333;DHT22;27984;51.476;5.702;2023-02-18T07:47:35;9.90;99.90
42333;DHT22;27984;51.476;5.702;2023-02-18T07:50:00;9.90;99.90
42333;DHT22;27984;51.476;5.702;2023-02-18T07:52:26;9.90;99.90
42333;DHT22;27984;51.476;5.702;2023-02-18T07:54:51;9.80;99.90
42333;DHT22;27984;51.476;5.702;2023-02-18T07:57:17;9.90;99.90
42333;DHT22;27984;51.476;5.702;2023-02-18T07:59:42;9.90;99.90
42333;DHT22;27984;51.476;5.702;2023-02-18T08:02:11;9.90;99.90
42333;DHT22;27984;51.476;5.702;2023-02-18T08:04:39;9.80;99.90
42333;DHT22;27984;51.476;5.702;2023-02-18T08:07:04;9.90;99.90
42333;DHT22;27984;51.476;5.702;2023-02-18T08:09:30;9.90;99.90
42333;DHT22;27984;51.476;5.702;2023-02-18T08:11:55;9.90;99.90
42333;DHT22;27984;51.476;5.702;2023-02-18T08:14:22;9.90;99.90
42333;DHT22;27984;51.476;5.702;2023-02-18T08:16:47;9.90;99.90
42333;DHT22;27984;51.476;5.702;2023-02-18T08:19:13;10.00;99.90
42333;DHT22;27984;51.476;5.702;2023-02-18T08:21:38;10.00;99.90
42333;DHT22;27984;51.476;5.702;2023-02-18T08:24:03;10.00;99.90
42333;DHT22;27984;51.476;5.702;2023-02-18T08:26:29;10.00;99.90
42333;DHT22;27984;51.476;5.702;2023-02-18T08:28:54;10.00;99.90
42333;DHT22;27984;51.476;5.702;2023-02-18T08:31:21;10.00;99.90
42333;DHT22;27984;51.476;5.702;2023-02-18T08:33:46;10.00;99.90
42333;DHT22;27984;51.476;5.702;2023-02-18T08:36:12;10.00;99.90
42333;DHT22;27984;51.476;5.702;2023-02-18T08:38:38;10.10;99.90
42333;DHT22;27984;51.476;5.702;2023-02-18T08:41:04;10.10;99.90
42333;DHT22;27984;51.476;5.702;2023-02-18T08:43:30;10.10;99.90
42333;DHT22;27984;51.476;5.702;2023-02-18T08:45:56;10.10;99.90
42333;DHT22;27984;51.476;5.702;2023-02-18T08:48:22;10.20;99.90
42333;DHT22;27984;51.476;5.702;2023-02-18T08:50:48;10.30;99.90
42333;DHT22;27984;51.476;5.702;2023-02-18T08:53:13;10.40;99.90
42333;DHT22;27984;51.476;5.702;2023-02-18T08:55:39;10.40;99.90
42333;DHT22;27984;51.476;5.702;2023-02-18T08:58:05;10.50;99.90
42333;DHT22;27984;51.476;5.702;2023-02-18T09:00:31;10.50;99.90
42333;DHT22;27984;51.476;5.702;2023-02-18T09:02:56;10.50;99.90
42333;DHT22;27984;51.476;5.702;2023-02-18T09:05:22;10.50;99.90
42333;DHT22;27984;51.476;5.702;2023-02-18T09:07:47;10.60;99.90
42333;DHT22;27984;51.476;5.702;2023-02-18T09:10:13;10.60;99.90
42333;DHT22;27984;51.476;5.702;2023-02-18T09:12:38;10.60;99.90
42333;DHT22;27984;51.476;5.702;2023-02-18T09:15:04;10.50;99.90
42333;DHT22;27984;51.476;5.702;2023-02-18T09:17:30;10.70;99.90
42333;DHT22;27984;51.476;5.702;2023-02-18T09:19:58;10.70;99.90
42333;DHT22;27984;51.476;5.702;2023-02-18T09:22:24;10.60;99.90
42333;DHT22;27984;51.476;5.702;2023-02-18T09:24:49;10.70;99.90
42333;DHT22;27984;51.476;5.702;2023-02-18T09:27:15;10.70;99.90
42333;DHT22;27984;51.476;5.702;2023-02-18T09:29:40;10.60;99.90
42333;DHT22;27984;51.476;5.702;2023-02-18T09:32:06;10.70;99.90
42333;DHT22;27984;51.476;5.702;2023-02-18T09:34:32;10.60;99.90
42333;DHT22;27984;51.476;5.702;2023-02-18T09:36:57;10.60;99.90
42333;DHT22;27984;51.476;5.702;2023-02-18T09:39:23;10.60;99.90
42333;DHT22;27984;51.476;5.702;2023-02-18T09:41:49;10.50;99.90
42333;DHT22;27984;51.476;5.702;2023-02-18T09:44:24;10.40;99.90
42333;DHT22;27984;51.476;5.702;2023-02-18T09:46:53;10.30;99.90
42333;DHT22;27984;51.476;5.702;2023-02-18T09:49:24;10.20;99.90
42333;DHT22;27984;51.476;5.702;2023-02-18T09:51:50;10.20;99.90
42333;DHT22;27984;51.476;5.702;2023-02-18T09:54:17;10.20;99.90
42333;DHT22;27984;51.476;5.702;2023-02-18T09:56:43;10.20;99.90
42333;DHT22;27984;51.476;5.702;2023-02-18T09:59:19;10.20;99.90
42333;DHT22;27984;51.476;5.702;2023-02-18T10:01:45;10.20;99.90
42333;DHT22;27984;51.476;5.702;2023-02-18T10:06:36;10.30;99.90
42333;DHT22;27984;51.476;5.702;2023-02-18T10:09:03;10.40;99.90
42333;DHT22;27984;51.476;5.702;2023-02-18T10:11:40;10.40;99.90
42333;DHT22;27984;51.476;5.702;2023-02-18T10:14:13;10.40;99.90
42333;DHT22;27984;51.476;5.702;2023-02-18T10:16:39;10.40;99.90
42333;DHT22;27984;51.476;5.702;2023-02-18T10:21:45;10.50;99.90
42333;DHT22;27984;51.476;5.702;2023-02-18T10:24:18;10.50;99.90
42333;DHT22;27984;51.476;5.702;2023-02-18T10:26:46;10.60;99.90
42333;DHT22;27984;51.476;5.702;2023-02-18T10:29:16;10.60;99.90
42333;DHT22;27984;51.476;5.702;2023-02-18T10:31:43;10.70;99.90
42333;DHT22;27984;51.476;5.702;2023-02-18T10:36:45;10.70;99.90
42333;DHT22;27984;51.476;5.702;2023-02-18T10:41:52;10.60;99.90
42333;DHT22;27984;51.476;5.702;2023-02-18T10:52:08;10.60;99.90
42333;DHT22;27984;51.476;5.702;2023-02-18T10:57:17;10.60;99.90
42333;DHT22;27984;51.476;5.702;2023-02-18T10:59:45;10.50;99.90
42333;DHT22;27984;51.476;5.702;2023-02-18T11:02:18;10.40;99.90
42333;DHT22;27984;51.476;5.702;2023-02-18T11:04:44;10.40;99.90
42333;DHT22;27984;51.476;5.702;2023-02-18T11:07:12;10.40;99.90
42333;DHT22;27984;51.476;5.702;2023-02-18T11:09:42;10.40;99.90
42333;DHT22;27984;51.476;5.702;2023-02-18T11:14:44;10.30;99.90
42333;DHT22;27984;51.476;5.702;2023-02-18T11:17:27;10.30;99.90
42333;DHT22;27984;51.476;5.702;2023-02-18T11:19:55;10.20;99.90
42333;DHT22;27984;51.476;5.702;2023-02-18T11:22:22;10.20;99.90
42333;DHT22;27984;51.476;5.702;2023-02-18T11:24:52;10.20;99.90
42333;DHT22;27984;51.476;5.702;2023-02-18T11:27:30;10.20;99.90
42333;DHT22;27984;51.476;5.702;2023-02-18T11:30:03;10.20;99.90
42333;DHT22;27984;51.476;5.702;2023-02-18T11:32:30;10.20;99.90
42333;DHT22;27984;51.476;5.702;2023-02-18T11:34:58;10.20;99.90
42333;DHT22;27984;51.476;5.702;2023-02-18T11:37:26;10.30;99.90
42333;DHT22;27984;51.476;5.702;2023-02-18T11:39:52;10.30;99.90
42333;DHT22;27984;51.476;5.702;2023-02-18T11:42:20;10.40;99.90
42333;DHT22;27984;51.476;5.702;2023-02-18T11:44:55;10.40;99.90
42333;DHT22;27984;51.476;5.702;2023-02-18T11:47:23;10.40;99.90
42333;DHT22;27984;51.476;5.702;2023-02-18T11:52:27;10.50;99.90
42333;DHT22;27984;51.476;5.702;2023-02-18T11:55:00;10.50;99.90
42333;DHT22;27984;51.476;5.702;2023-02-18T11:57:27;10.50;99.90
42333;DHT22;27984;51.476;5.702;2023-02-18T11:59:53;10.50;99.90
42333;DHT22;27984;51.476;5.702;2023-02-18T12:04:59;10.60;99.90
42333;DHT22;27984;51.476;5.702;2023-02-18T12:07:28;10.50;99.90
42333;DHT22;27984;51.476;5.702;2023-02-18T12:10:00;10.50;99.90
42333;DHT22;27984;51.476;5.702;2023-02-18T12:12:29;10.50;99.90
42333;DHT22;27984;51.476;5.702;2023-02-18T12:14:55;10.50;99.90
42333;DHT22;27984;51.476;5.702;2023-02-18T12:17:39;10.60;99.90
42333;DHT22;27984;51.476;5.702;2023-02-18T12:20:17;10.60;99.90
42333;DHT22;27984;51.476;5.702;2023-02-18T12:22:46;10.70;99.90
42333;DHT22;27984;51.476;5.702;2023-02-18T12:25:23;10.80;99.90
42333;DHT22;27984;51.476;5.702;2023-02-18T12:33:05;11.10;99.90
42333;DHT22;27984;51.476;5.702;2023-02-18T12:38:01;11.30;99.90
42333;DHT22;27984;51.476;5.702;2023-02-18T12:40:34;11.40;99.90
42333;DHT22;27984;51.476;5.702;2023-02-18T12:50:59;11.70;99.90
42333;DHT22;27984;51.476;5.702;2023-02-18T12:53:34;11.80;99.90
42333;DHT22;27984;51.476;5.702;2023-02-18T13:01:20;11.70;99.90
42333;DHT22;27984;51.476;5.702;2023-02-18T13:09:19;11.60;99.90
42333;DHT22;27984;51.476;5.702;2023-02-18T13:15:02;11.70;99.90
42333;DHT22;27984;51.476;5.702;2023-02-18T13:17:26;11.70;99.90
42333;DHT22;27984;51.476;5.702;2023-02-18T13:19:57;11.70;99.90
42333;DHT22;27984;51.476;5.702;2023-02-18T13:22:24;11.60;99.90
42333;DHT22;27984;51.476;5.702;2023-02-18T13:24:51;11.60;99.90
42333;DHT22;27984;51.476;5.702;2023-02-18T13:27:20;11.70;99.90
42333;DHT22;27984;51.476;5.702;2023-02-18T13:29:55;11.70;99.90
42333;DHT22;27984;51.476;5.702;2023-02-18T13:32:25;11.70;99.90
42333;DHT22;27984;51.476;5.702;2023-02-18T13:40:21;11.80;99.90
42333;DHT22;27984;51.476;5.702;2023-02-18T13:42:50;11.90;99.90
42333;DHT22;27984;51.476;5.702;2023-02-18T13:45:26;11.90;99.90
42333;DHT22;27984;51.476;5.702;2023-02-18T13:47:52;11.80;99.90
42333;DHT22;27984;51.476;5.702;2023-02-18T13:52:47;11.70;99.90
42333;DHT22;27984;51.476;5.702;2023-02-18T13:55:34;11.60;99.90
42333;DHT22;27984;51.476;5.702;2023-02-18T13:58:01;11.60;99.90
42333;DHT22;27984;51.476;5.702;2023-02-18T14:00:33;11.70;99.90
42333;DHT22;27984;51.476;5.702;2023-02-18T14:03:01;11.70;99.90
42333;DHT22;27984;51.476;5.702;2023-02-18T14:05:39;11.80;99.90
42333;DHT22;27984;51.476;5.702;2023-02-18T14:08:10;11.90;99.90
42333;DHT22;27984;51.476;5.702;2023-02-18T14:10:36;11.90;99.90
42333;DHT22;27984;51.476;5.702;2023-02-18T14:15:49;12.20;99.90
42333;DHT22;27984;51.476;5.702;2023-02-18T14:20:45;12.30;99.90
42333;DHT22;27984;51.476;5.702;2023-02-18T14:41:33;12.20;99.90
42333;DHT22;27984;51.476;5.702;2023-02-18T14:44:10;12.20;99.90
42333;DHT22;27984;51.476;5.702;2023-02-18T14:46:45;12.20;99.90
42333;DHT22;27984;51.476;5.702;2023-02-18T14:49:29;12.20;99.90
42333;DHT22;27984;51.476;5.702;2023-02-18T14:51:56;12.20;99.90
42333;DHT22;27984;51.476;5.702;2023-02-18T14:54:23;12.10;99.90
42333;DHT22;27984;51.476;5.702;2023-02-18T14:56:59;12.10;99.90
42333;DHT22;27984;51.476;5.702;2023-02-18T14:59:27;12.20;99.90
42333;DHT22;27984;51.476;5.702;2023-02-18T15:01:54;12.20;99.90
42333;DHT22;27984;51.476;5.702;2023-02-18T15:04:20;12.20;99.90
42333;DHT22;27984;51.476;5.702;2023-02-18T15:06:46;12.20;99.90
42333;DHT22;27984;51.476;5.702;2023-02-18T15:09:22;12.20;99.90
42333;DHT22;27984;51.476;5.702;2023-02-18T15:11:53;12.20;99.90
42333;DHT22;27984;51.476;5.702;2023-02-18T15:14:21;12.20;99.90
42333;DHT22;27984;51.476;5.702;2023-02-18T15:16:47;12.20;99.90
42333;DHT22;27984;51.476;5.702;2023-02-18T15:20:02;12.20;99.90
42333;DHT22;27984;51.476;5.702;2023-02-18T15:22:02;12.10;99.90
42333;DHT22;27984;51.476;5.702;2023-02-18T15:24:32;12.20;99.90
42333;DHT22;27984;51.476;5.702;2023-02-18T15:26:59;12.20;99.90
42333;DHT22;27984;51.476;5.702;2023-02-18T15:29:26;12.10;99.90
42333;DHT22;27984;51.476;5.702;2023-02-18T15:31:53;12.10;99.90
42333;DHT22;27984;51.476;5.702;2023-02-18T15:37:00;12.10;99.90
42333;DHT22;27984;51.476;5.702;2023-02-18T15:39:26;12.20;99.90
42333;DHT22;27984;51.476;5.702;2023-02-18T15:41:53;12.10;99.90
42333;DHT22;27984;51.476;5.702;2023-02-18T15:44:20;12.10;99.90
42333;DHT22;27984;51.476;5.702;2023-02-18T15:46:46;12.10;99.90
42333;DHT22;27984;51.476;5.702;2023-02-18T15:49:13;12.10;99.90
42333;DHT22;27984;51.476;5.702;2023-02-18T15:51:40;12.10;99.90
42333;DHT22;27984;51.476;5.702;2023-02-18T15:54:11;12.10;99.90
42333;DHT22;27984;51.476;5.702;2023-02-18T15:56:38;12.10;99.90
42333;DHT22;27984;51.476;5.702;2023-02-18T15:59:23;12.10;99.90
42333;DHT22;27984;51.476;5.702;2023-02-18T16:01:54;12.20;99.90
42333;DHT22;27984;51.476;5.702;2023-02-18T16:04:21;12.10;99.90
42333;DHT22;27984;51.476;5.702;2023-02-18T16:06:51;12.10;99.90
42333;DHT22;27984;51.476;5.702;2023-02-18T16:09:24;12.20;99.90
42333;DHT22;27984;51.476;5.702;2023-02-18T16:11:52;12.10;99.90
42333;DHT22;27984;51.476;5.702;2023-02-18T16:14:23;12.10;99.90
42333;DHT22;27984;51.476;5.702;2023-02-18T16:19:30;12.10;99.90
42333;DHT22;27984;51.476;5.702;2023-02-18T16:21:55;12.10;99.90
42333;DHT22;27984;51.476;5.702;2023-02-18T16:24:26;12.00;99.90
42333;DHT22;27984;51.476;5.702;2023-02-18T16:27:00;12.00;99.90
42333;DHT22;27984;51.476;5.702;2023-02-18T16:29:34;12.00;99.90
42333;DHT22;27984;51.476;5.702;2023-02-18T16:32:03;12.00;99.90
42333;DHT22;27984;51.476;5.702;2023-02-18T16:34:28;12.00;99.90
42333;DHT22;27984;51.476;5.702;2023-02-18T16:36:54;12.00;99.90
42333;DHT22;27984;51.476;5.702;2023-02-18T16:39:38;11.90;99.90
42333;DHT22;27984;51.476;5.702;2023-02-18T16:42:09;11.80;99.90
42333;DHT22;27984;51.476;5.702;2023-02-18T16:44:35;11.80;99.90
42333;DHT22;27984;51.476;5.702;2023-02-18T16:47:01;11.70;99.90
42333;DHT22;27984;51.476;5.702;2023-02-18T16:49:27;11.70;99.90
42333;DHT22;27984;51.476;5.702;2023-02-18T16:51:52;11.60;99.90
42333;DHT22;27984;51.476;5.702;2023-02-18T16:54:18;11.60;99.90
42333;DHT22;27984;51.476;5.702;2023-02-18T16:56:43;11.50;99.90
42333;DHT22;27984;51.476;5.702;2023-02-18T16:59:09;11.50;99.90
42333;DHT22;27984;51.476;5.702;2023-02-18T17:01:35;11.50;99.90
42333;DHT22;27984;51.476;5.702;2023-02-18T17:04:03;11.40;99.90
42333;DHT22;27984;51.476;5.702;2023-02-18T17:06:30;11.40;99.90
42333;DHT22;27984;51.476;5.702;2023-02-18T17:08:55;11.40;99.90
42333;DHT22;27984;51.476;5.702;2023-02-18T17:11:25;11.40;99.90
42333;DHT22;27984;51.476;5.702;2023-02-18T17:13:53;11.40;99.90
42333;DHT22;27984;51.476;5.702;2023-02-18T17:16:18;11.30;99.90
42333;DHT22;27984;51.476;5.702;2023-02-18T17:18:44;11.30;99.90
42333;DHT22;27984;51.476;5.702;2023-02-18T17:21:14;11.30;99.90
42333;DHT22;27984;51.476;5.702;2023-02-18T17:23:44;11.20;99.90
42333;DHT22;27984;51.476;5.702;2023-02-18T17:26:18;11.20;99.90
42333;DHT22;27984;51.476;5.702;2023-02-18T17:28:43;11.10;99.90
42333;DHT22;27984;51.476;5.702;2023-02-18T17:31:13;11.20;99.90
42333;DHT22;27984;51.476;5.702;2023-02-18T17:33:39;11.10;99.90
42333;DHT22;27984;51.476;5.702;2023-02-18T17:36:05;11.10;99.90
42333;DHT22;27984;51.476;5.702;2023-02-18T17:38:31;11.00;99.90
42333;DHT22;27984;51.476;5.702;2023-02-18T17:40:57;11.00;99.90